Terminal Aerodrome Forecast
Issued by NWS

Home | Current Version | Previous Version | Text Only | Print | Product List | Glossary On
Versions: 1 2 3 4 5 6 7 8 9 10 11 12 13 14 15 16 17 18 19 20 21 22 23 24 25 26 27 28 29 30 31 32 33 34 35 36 37 38 39 40 41 42
000
FTUS41 KBOX 200535
TAFACK
TAF
KACK 200535Z 2006/2106 06018G27KT 3/4SM BR VCSH OVC002
     FM201200 05025G37KT 1SM SHRA BR VCTS OVC002CB
     FM201600 04031G42KT 3SM SHRA BR VCTS OVC008CB WS020/06055KT
     FM202200 03032G48KT 1 1/2SM +SHRA BR VCTS OVC008CB
      WS020/05060KT=

USA.gov is the U.S. government's official web portal to all federal, state and local government web resources and services.